Soaring Guidance
Issued by NWS Reno, NV

Home | Current Version | Previous Version | Text Only | Print | Product List | Glossary On
Versions: 1 2 3 4 5 6 7 8 9 10 11 12 13 14
000
UXUS97 KREV 031347
SRGREV

SOARING FORECAST
NATIONAL WEATHER SERVICE - RENO NV
700 AM PDT MON AUG 3 2015

THIS SOARING FORECAST IS FOR THE EASTERN SIERRA AND WESTERN NEVADA
WITH SPECIFIC INDICES FOR THE GREATER RENO AREA.

THIS FORECAST IS PREPARED DAILY BY 700 AM AND IS NOT UPDATED.

FOR CURRENT FLIGHT CONDITIONS...FORECASTS...AND ADVISORIES...ACCESS
YOUR LOCAL BRIEFING OUTLET OR FLIGHT SERVICE STATION.

*******************************************************************
FORECASTED LOCAL INDICES FOR RENO:        TODAY     YESTERDAY
FORECASTED MAX TEMP AT RENO (DEG F).....     91          98
FORECASTED TRIGGER TEMPERATURE (DEG F)..     76          81
   EXCEEDED YESTERDAY BY 1155 AM PDT
FORECASTED MAXIMUM ALTITUDE (FT MSL)....  16700       16600
FORECASTED SOARING INDEX (FPM)..........   1041        1128
FORECASTED K-INDEX.........VALID 18Z....     24          27
FORECASTED K-INDEX.........VALID 00Z....     24          34
FORECASTED LIFTED INDEX....VALID 18Z....      1           1
FORECASTED LIFTED INDEX....VALID 00Z....      2          -1

AFTERNOON WINDS ALOFT FORECAST
MSL (FT) WIND/TEMP
9000  2809/+17
10000 2608/+14
12000 2606/+08
14000 2309/+02
16000 2213/-03
18000 2223/-09
24000 2329/-23
30000 2544/-37
34000 2556/-46
39000 2549/-56

SLIDE MOUNTAIN DATA:
     DATE       TIME     TEMP  DEWPT   RH         WIND (MPH)
                        (F)   (F)           | DIR  SPEED GUST
2015-08-03    05:50      50    39     70    | 218    5   10
2015-08-03    05:30      49    39     71    | 225    6    9
2015-08-03    05:20      50    41     77    | 224    6   13
2015-08-03    05:00      50    42     80    | 204    5    9

RENO TAF FORECAST:
KRNO 031204Z 0312/0412 VRB04KT P6SM SCT200
     FM032000 26010KT P6SM FEW120 SCT200
     FM032300 31011G19KT P6SM SCT200
     FM040400 VRB04KT P6SM SCT200

CARSON CITY TAF FORECAST:
KCXP 031204Z 0312/0412 VRB04KT P6SM SCT200
     FM032000 24011KT P6SM FEW120 SCT200
     FM032300 29009G16KT P6SM SCT200
     FM040300 VRB04KT P6SM SCT200

OUTLOOK FOR THE RENO-CARSON CITY-MINDEN AREA:
.TUESDAY...PARTLY CLOUDY. HIGHS 87 TO 92. SOUTHWEST WINDS UP TO
10 MPH.

SUNRISE AND SUNSET
AUGUST  3 2015........SUNRISE   600 AM PDT   SUNSET   810 PM PDT
AUGUST  4 2015........SUNRISE   601 AM PDT   SUNSET   809 PM PDT


USA.gov is the U.S. government's official web portal to all federal, state and local government web resources and services.